Time;durP1;ratioP1;P1;durP2;ratioP2;P2;SDS_P1;SDS_P2;PMS_P1;PMS_P2;Temp;Humidity;BMP_temperature;BMP_pressure;BME280_temperature;BME280_humidity;BME280_pressure;Samples;Min_cycle;Max_cycle;Signal;HPM_P1;HPM_P2
2022/12/04 00:01:24;;;;;;;7.32;3.10;;;1.30;88.40;;;;;;5073991;28;20040;-73
2022/12/04 00:03:52;;;;;;;6.97;3.13;;;1.30;88.40;;;;;;5092454;28;20448;-73
2022/12/04 00:06:19;;;;;;;6.72;2.75;;;1.30;88.40;;;;;;5074319;28;20119;-74
2022/12/04 00:08:46;;;;;;;5.70;2.63;;;1.30;88.40;;;;;;5092301;28;20553;-73
2022/12/04 00:11:16;;;;;;;6.88;3.10;;;1.30;88.40;;;;;;5091961;28;20440;-73
2022/12/04 00:13:41;;;;;;;6.72;2.90;;;1.40;88.50;;;;;;5092111;28;20048;-73
2022/12/04 00:16:10;;;;;;;6.53;2.95;;;1.30;88.40;;;;;;5074108;28;20097;-73
2022/12/04 00:18:37;;;;;;;7.60;2.97;;;1.30;88.50;;;;;;5091914;28;20044;-73
2022/12/04 00:21:04;;;;;;;7.63;3.38;;;1.20;88.40;;;;;;5073317;28;20048;-73
2022/12/04 00:23:31;;;;;;;8.75;3.33;;;1.30;88.40;;;;;;5074298;28;20083;-72
2022/12/04 00:26:02;;;;;;;8.57;3.53;;;1.30;88.40;;;;;;5089737;28;20036;-73
2022/12/04 00:28:27;;;;;;;7.47;3.50;;;1.30;88.40;;;;;;5073716;28;20040;-73
2022/12/04 00:30:53;;;;;;;7.03;3.05;;;1.30;88.40;;;;;;5091750;28;20040;-73
2022/12/04 00:33:18;;;;;;;8.20;3.35;;;1.30;88.50;;;;;;5091781;28;20040;-73
2022/12/04 00:35:44;;;;;;;7.90;3.10;;;1.30;88.40;;;;;;5091676;28;20504;-73
2022/12/04 00:38:10;;;;;;;6.40;2.53;;;1.30;88.50;;;;;;5091826;28;20040;-73
2022/12/04 00:40:35;;;;;;;5.95;3.00;;;1.30;88.50;;;;;;5091643;28;20432;-73
2022/12/04 00:43:02;;;;;;;7.75;2.97;;;1.30;88.50;;;;;;5091654;28;20131;-74
2022/12/04 00:45:28;;;;;;;6.43;3.00;;;1.30;88.50;;;;;;5091604;28;20036;-73
2022/12/04 00:47:54;;;;;;;6.32;2.78;;;1.30;88.50;;;;;;5091957;28;20101;-73
2022/12/04 00:50:20;;;;;;;6.25;2.63;;;1.40;88.50;;;;;;5073763;28;20046;-73
2022/12/04 00:52:45;;;;;;;6.82;2.90;;;1.30;88.50;;;;;;5092055;28;20373;-75
2022/12/04 00:55:11;;;;;;;6.40;2.67;;;1.30;88.50;;;;;;5091488;28;20032;-75
2022/12/04 00:57:36;;;;;;;8.30;3.40;;;1.30;88.50;;;;;;5091408;28;20067;-73
2022/12/04 01:00:03;;;;;;;6.97;2.80;;;1.30;88.50;;;;;;5073292;28;20138;-73
2022/12/04 01:02:29;;;;;;;6.30;3.00;;;1.30;88.50;;;;;;5091826;28;20044;-73
2022/12/04 01:04:55;;;;;;;5.32;2.38;;;1.30;88.50;;;;;;5091231;28;20136;-75
2022/12/04 01:07:21;;;;;;;7.40;3.20;;;1.30;88.50;;;;;;5091288;28;20073;-72
2022/12/04 01:09:47;;;;;;;6.13;3.20;;;1.40;88.50;;;;;;5091214;28;20079;-73
2022/12/04 01:12:12;;;;;;;6.38;3.00;;;1.30;88.50;;;;;;5091241;28;20055;-73
2022/12/04 01:14:38;;;;;;;7.20;2.95;;;1.30;89.10;;;;;;5091741;28;20174;-74
2022/12/04 01:17:03;;;;;;;7.20;3.28;;;1.30;88.50;;;;;;5091224;28;20044;-74
2022/12/04 01:19:29;;;;;;;6.40;2.75;;;1.30;88.50;;;;;;5091155;28;20051;-74
2022/12/04 01:21:55;;;;;;;5.97;2.88;;;1.30;88.50;;;;;;5073548;28;20044;-75
2022/12/04 01:24:20;;;;;;;5.22;2.47;;;1.30;88.50;;;;;;5091373;28;20039;-75
2022/12/04 01:26:46;;;;;;;6.25;2.92;;;1.30;88.50;;;;;;5090963;28;20466;-75
2022/12/04 01:29:11;;;;;;;6.68;2.63;;;1.40;88.50;;;;;;5090952;28;20094;-75
2022/12/04 01:31:37;;;;;;;6.07;2.80;;;1.30;88.50;;;;;;5091015;28;20492;-75
2022/12/04 01:34:03;;;;;;;5.78;2.60;;;1.30;88.50;;;;;;5094118;28;20093;-75
2022/12/04 01:36:29;;;;;;;7.38;3.17;;;1.40;88.50;;;;;;5076283;28;20513;-75
2022/12/04 01:38:55;;;;;;;7.68;3.15;;;1.30;88.50;;;;;;5094355;28;20435;-75
2022/12/04 01:41:25;;;;;;;5.22;2.33;;;1.40;88.50;;;;;;5076632;28;20043;-73
2022/12/04 01:44:20;;;;;;;6.07;2.78;;;1.30;88.50;;;;;;5094281;28;20044;-73
2022/12/04 01:47:02;;;;;;;6.10;2.45;;;1.40;88.50;;;;;;5094377;28;20101;-73
2022/12/04 01:49:30;;;;;;;;;;;1.40;88.50;;;;;;5079267;28;20047;-73
2022/12/04 01:52:04;;;;;;;5.70;2.42;;;1.40;88.50;;;;;;5094574;28;20243;-73
2022/12/04 01:54:34;;;;;;;6.22;2.30;;;1.40;88.40;;;;;;5075969;28;20185;-73
2022/12/04 01:57:07;;;;;;;5.50;2.60;;;1.40;88.40;;;;;;5076300;28;20490;-73
2022/12/04 01:59:40;;;;;;;5.47;2.40;;;1.40;88.50;;;;;;5093999;28;20040;-74
2022/12/04 02:02:08;;;;;;;7.53;2.85;;;1.30;88.50;;;;;;5094175;28;20046;-73
2022/12/04 02:04:35;;;;;;;6.53;3.20;;;1.40;88.50;;;;;;5076586;28;20055;-73
2022/12/04 02:07:01;;;;;;;5.85;2.40;;;1.40;88.50;;;;;;5075826;28;20536;-73
2022/12/04 02:09:27;;;;;;;5.45;2.67;;;1.40;88.50;;;;;;5093712;28;20044;-73
2022/12/04 02:12:14;;;;;;;7.38;3.00;;;1.40;88.50;;;;;;5075707;28;20474;-75
2022/12/04 02:14:59;;;;;;;7.63;2.95;;;1.30;88.50;;;;;;5075681;28;20040;-73
2022/12/04 02:17:45;;;;;;;7.22;2.70;;;1.30;88.50;;;;;;5073340;28;20479;-73
2022/12/04 02:20:35;;;;;;;7.70;3.33;;;1.40;88.50;;;;;;5092214;28;20436;-73
2022/12/04 02:23:21;;;;;;;6.15;2.50;;;1.40;88.80;;;;;;5092961;28;20042;-73
2022/12/04 02:26:15;;;;;;;6.25;2.85;;;1.40;88.50;;;;;;5093420;28;20948;-73
2022/12/04 02:29:05;;;;;;;6.40;2.65;;;1.30;88.40;;;;;;5093348;28;20139;-73
2022/12/04 02:31:39;;;;;;;5.90;2.72;;;1.40;88.50;;;;;;5075387;28;20050;-74
2022/12/04 02:34:20;;;;;;;7.82;3.20;;;1.40;88.50;;;;;;5075239;28;20040;-75
2022/12/04 02:36:52;;;;;;;8.02;3.33;;;1.40;88.40;;;;;;5093301;28;20486;-73
2022/12/04 02:39:29;;;;;;;7.50;3.25;;;1.30;88.40;;;;;;5093109;28;20565;-73
2022/12/04 02:42:06;;;;;;;7.05;3.17;;;1.30;88.50;;;;;;5093225;28;20044;-73
2022/12/04 02:44:41;;;;;;;5.90;2.90;;;1.30;88.50;;;;;;5093237;28;20055;-73
2022/12/04 02:47:11;;;;;;;5.93;2.80;;;1.30;88.50;;;;;;5093168;28;20043;-75
2022/12/04 02:49:44;;;;;;;6.82;3.53;;;1.30;88.50;;;;;;5093225;28;20358;-74
2022/12/04 02:52:13;;;;;;;6.97;3.40;;;1.40;88.50;;;;;;5093230;28;20171;-73
2022/12/04 02:54:44;;;;;;;6.97;3.10;;;1.30;88.50;;;;;;5093160;28;20371;-72
2022/12/04 02:57:16;;;;;;;5.38;2.40;;;1.30;88.50;;;;;;5093767;28;20044;-73
2022/12/04 02:59:44;;;;;;;9.15;3.20;;;1.50;88.60;;;;;;5075619;28;20124;-73
2022/12/04 03:02:17;;;;;;;6.28;2.97;;;1.40;88.50;;;;;;5093126;28;20043;-74
2022/12/04 03:04:49;;;;;;;5.82;2.60;;;1.30;88.50;;;;;;5093131;28;20502;-72
2022/12/04 03:07:22;;;;;;;6.90;2.78;;;1.40;88.50;;;;;;5093527;28;20047;-73
2022/12/04 03:09:51;;;;;;;6.53;2.65;;;1.40;88.50;;;;;;5092918;28;20051;-74
2022/12/04 03:12:33;;;;;;;6.75;3.40;;;1.50;88.60;;;;;;5093006;28;20081;-75
2022/12/04 03:15:10;;;;;;;8.07;2.50;;;1.40;88.60;;;;;;5076193;28;20039;-74
2022/12/04 03:17:43;;;;;;;5.90;2.85;;;1.40;88.50;;;;;;5093138;28;20102;-74
2022/12/04 03:20:13;;;;;;;6.35;3.00;;;1.40;88.50;;;;;;5093185;28;20397;-75
2022/12/04 03:22:42;;;;;;;5.97;2.70;;;1.40;88.60;;;;;;5093142;28;20051;-74
2022/12/04 03:25:09;;;;;;;6.32;2.80;;;1.40;88.60;;;;;;5092635;28;20056;-75
2022/12/04 03:27:59;;;;;;;6.85;3.00;;;1.40;88.60;;;;;;5074561;28;20048;-75
2022/12/04 03:30:25;;;;;;;6.38;2.95;;;1.40;88.60;;;;;;5092498;28;20052;-74
2022/12/04 03:33:01;;;;;;;6.68;2.83;;;1.40;88.60;;;;;;5074932;28;20482;-75
2022/12/04 03:35:43;;;;;;;6.85;2.90;;;1.40;88.60;;;;;;5092448;28;20036;-75
2022/12/04 03:38:17;;;;;;;7.93;2.72;;;1.40;88.60;;;;;;5092414;28;20479;-75
2022/12/04 03:40:52;;;;;;;7.25;3.17;;;1.40;88.60;;;;;;5092524;28;20051;-75
2022/12/04 03:43:28;;;;;;;7.38;2.97;;;1.40;88.60;;;;;;5092667;28;20101;-75
2022/12/04 03:45:59;;;;;;;6.80;3.05;;;1.40;88.60;;;;;;5092242;28;20062;-75
2022/12/04 03:48:35;;;;;;;7.97;3.30;;;1.40;88.60;;;;;;5092322;28;20074;-75
2022/12/04 03:51:13;;;;;;;6.75;2.47;;;1.40;88.60;;;;;;5092182;28;20036;-75
2022/12/04 03:53:53;;;;;;;6.60;2.97;;;1.40;88.60;;;;;;5092158;28;20050;-75
2022/12/04 03:56:31;;;;;;;6.18;2.88;;;1.30;88.60;;;;;;5073430;28;20479;-75
2022/12/04 03:59:01;;;;;;;6.43;2.60;;;1.40;88.60;;;;;;5092370;28;20054;-75
2022/12/04 04:01:33;;;;;;;5.75;2.30;;;1.60;88.70;;;;;;5092338;28;20047;-74
2022/12/04 04:04:02;;;;;;;5.70;2.47;;;1.40;88.60;;;;;;5092009;28;20490;-74
2022/12/04 04:06:36;;;;;;;6.63;3.05;;;1.40;88.60;;;;;;5074650;28;20063;-75
2022/12/04 04:09:07;;;;;;;6.15;2.85;;;1.40;88.60;;;;;;5092188;28;20544;-75
2022/12/04 04:11:57;;;;;;;5.97;2.70;;;1.40;88.60;;;;;;5092132;28;20484;-75
2022/12/04 04:25:43;;;;;;;8.05;3.10;;;1.40;88.60;;;;;;5075426;28;20054;-75
2022/12/04 04:28:28;;;;;;;6.40;2.83;;;1.40;88.70;;;;;;5091684;28;20044;-75
2022/12/04 04:31:01;;;;;;;6.25;2.63;;;1.40;88.70;;;;;;5073609;28;20122;-74
2022/12/04 04:33:29;;;;;;;5.78;2.60;;;1.40;88.70;;;;;;5091763;28;20066;-75
2022/12/04 04:36:05;;;;;;;5.90;2.92;;;1.40;88.60;;;;;;5073590;28;20132;-75
2022/12/04 04:38:39;;;;;;;7.32;3.40;;;1.40;88.60;;;;;;5091613;28;20059;-75
2022/12/04 04:41:18;;;;;;;6.93;3.00;;;1.50;88.70;;;;;;5091599;28;20091;-75
2022/12/04 04:44:06;;;;;;;5.93;2.70;;;1.40;88.60;;;;;;5091451;28;20051;-75
2022/12/04 04:46:36;;;;;;;7.82;3.13;;;1.40;88.70;;;;;;5091509;28;20060;-75
2022/12/04 04:49:05;;;;;;;6.32;3.13;;;1.40;88.60;;;;;;5073168;28;20059;-75
2022/12/04 04:51:33;;;;;;;6.53;3.05;;;1.40;88.60;;;;;;5091498;28;20097;-75
2022/12/04 04:54:03;;;;;;;7.20;3.28;;;1.40;88.70;;;;;;5091847;28;20032;-74
2022/12/04 04:56:29;;;;;;;6.40;2.60;;;1.40;88.70;;;;;;5091644;28;20367;-75
2022/12/04 04:58:55;;;;;;;7.53;3.22;;;1.40;88.70;;;;;;5091418;28;20040;-75
2022/12/04 05:01:25;;;;;;;6.40;2.78;;;1.40;88.70;;;;;;5091427;28;20509;-75
2022/12/04 05:03:51;;;;;;;8.32;3.13;;;1.40;88.70;;;;;;5091888;28;20046;-74
2022/12/04 05:06:17;;;;;;;7.78;3.25;;;1.40;88.70;;;;;;5073815;28;20119;-75
2022/12/04 05:08:43;;;;;;;6.28;2.67;;;1.40;88.70;;;;;;5094280;28;20044;-75
2022/12/04 05:11:12;;;;;;;6.25;2.85;;;1.40;88.70;;;;;;5095093;28;20466;-75
2022/12/04 05:13:38;;;;;;;7.55;2.97;;;1.50;88.80;;;;;;5094987;28;20441;-75
2022/12/04 05:16:07;;;;;;;5.63;2.47;;;1.50;88.80;;;;;;5076254;28;20047;-74
2022/12/04 05:18:33;;;;;;;5.75;2.63;;;1.50;88.80;;;;;;5094771;28;20044;-74
2022/12/04 05:21:05;;;;;;;7.45;3.00;;;1.40;88.70;;;;;;5077184;28;20040;-75
2022/12/04 05:23:31;;;;;;;6.53;3.05;;;1.50;88.70;;;;;;5095039;28;20044;-75
2022/12/04 05:25:59;;;;;;;6.88;2.97;;;1.40;88.70;;;;;;5094854;28;20516;-74
2022/12/04 05:28:26;;;;;;;7.32;2.70;;;1.50;88.80;;;;;;5077404;28;20040;-75
2022/12/04 05:30:56;;;;;;;6.40;2.70;;;1.40;88.70;;;;;;5094998;28;20051;-75
2022/12/04 05:33:22;;;;;;;6.25;2.65;;;1.40;88.80;;;;;;5094664;28;20513;-75
2022/12/04 05:36:01;;;;;;;5.72;2.65;;;1.40;88.80;;;;;;5095128;28;20073;-75
2022/12/04 05:38:27;;;;;;;6.35;2.90;;;1.50;88.80;;;;;;5095020;28;20067;-75
2022/12/04 05:40:52;;;;;;;6.10;2.80;;;1.40;88.80;;;;;;5094878;28;20032;-75
2022/12/04 05:43:18;;;;;;;5.22;2.35;;;1.50;88.80;;;;;;5094794;28;20043;-75
2022/12/04 05:45:44;;;;;;;5.90;2.53;;;1.50;88.80;;;;;;5094594;28;20040;-75
2022/12/04 05:48:10;;;;;;;5.72;2.50;;;1.50;88.80;;;;;;5094942;28;20058;-74
2022/12/04 05:50:37;;;;;;;7.60;2.72;;;1.50;88.80;;;;;;5094378;28;20040;-75
2022/12/04 05:53:03;;;;;;;5.70;2.50;;;1.50;88.90;;;;;;5094313;28;20069;-75
2022/12/04 05:55:29;;;;;;;4.93;2.42;;;1.40;88.80;;;;;;5094609;28;20040;-75
2022/12/04 05:57:54;;;;;;;5.53;2.50;;;1.40;88.80;;;;;;5076921;28;20067;-75
2022/12/04 06:00:20;;;;;;;6.32;2.33;;;1.50;88.80;;;;;;5094856;28;20050;-74
2022/12/04 06:02:45;;;;;;;6.63;2.75;;;1.50;89.10;;;;;;5094965;28;20048;-75
2022/12/04 06:05:11;;;;;;;5.50;2.20;;;1.40;88.70;;;;;;5094749;28;20040;-74
2022/12/04 06:07:37;;;;;;;7.50;3.08;;;1.40;88.80;;;;;;5094252;28;20039;-75
2022/12/04 06:10:03;;;;;;;5.22;2.40;;;1.50;88.80;;;;;;5094463;28;20359;-74
2022/12/04 06:12:30;;;;;;;5.72;2.55;;;1.40;88.80;;;;;;5094118;28;20078;-75
2022/12/04 06:14:55;;;;;;;6.13;2.78;;;1.40;88.80;;;;;;5094482;28;20130;-74
2022/12/04 06:17:21;;;;;;;6.32;2.67;;;1.50;88.90;;;;;;5094148;28;20075;-75
2022/12/04 06:19:47;;;;;;;6.70;2.97;;;1.40;88.80;;;;;;5093659;28;20044;-75
2022/12/04 06:22:12;;;;;;;5.63;2.47;;;1.40;88.80;;;;;;5094703;28;20043;-75
2022/12/04 06:24:38;;;;;;;6.63;2.67;;;1.40;88.70;;;;;;5076481;28;20481;-74
2022/12/04 06:27:03;;;;;;;6.50;2.70;;;1.40;88.80;;;;;;5094180;28;20046;-75
2022/12/04 06:29:29;;;;;;;6.93;2.88;;;1.50;88.90;;;;;;5093732;28;20131;-75
2022/12/04 06:31:55;;;;;;;6.07;2.50;;;1.40;88.80;;;;;;5093713;28;20040;-75
2022/12/04 06:34:20;;;;;;;5.32;2.33;;;1.50;88.90;;;;;;5094293;28;20040;-74
2022/12/04 06:36:46;;;;;;;6.10;2.28;;;1.50;88.80;;;;;;5093592;28;20085;-75
2022/12/04 06:39:12;;;;;;;5.65;2.60;;;1.50;88.80;;;;;;5074989;28;20501;-74
2022/12/04 06:41:37;;;;;;;5.50;2.70;;;1.60;88.90;;;;;;5093634;28;20047;-75
2022/12/04 06:44:03;;;;;;;6.90;3.10;;;1.60;89.00;;;;;;5093705;28;20126;-75
2022/12/04 06:46:31;;;;;;;6.20;2.63;;;1.50;88.80;;;;;;5075527;28;20048;-75
2022/12/04 06:48:59;;;;;;;4.97;2.38;;;1.50;88.90;;;;;;5075085;28;20478;-75
2022/12/04 06:51:30;;;;;;;5.35;2.53;;;1.50;88.90;;;;;;5093446;28;20040;-75
2022/12/04 06:53:56;;;;;;;7.18;2.58;;;1.40;88.80;;;;;;5093448;28;20097;-75
2022/12/04 06:56:24;;;;;;;6.25;2.47;;;1.50;88.90;;;;;;5093500;28;20435;-75
2022/12/04 06:58:52;;;;;;;6.32;2.78;;;1.50;88.80;;;;;;5075957;28;20059;-75
2022/12/04 07:01:21;;;;;;;6.22;3.10;;;1.50;88.80;;;;;;5093525;28;20051;-72
2022/12/04 07:03:47;;;;;;;5.80;2.55;;;1.40;88.80;;;;;;5075338;28;20040;-75
2022/12/04 07:06:17;;;;;;;5.60;2.63;;;1.50;88.80;;;;;;5093410;28;20046;-75
2022/12/04 07:08:44;;;;;;;7.40;3.28;;;1.50;88.90;;;;;;5093685;28;20414;-75
2022/12/04 07:11:10;;;;;;;6.22;2.90;;;1.50;88.90;;;;;;5075363;28;20508;-75
2022/12/04 07:13:36;;;;;;;6.97;3.22;;;1.50;88.80;;;;;;5093170;28;20051;-74
2022/12/04 07:16:04;;;;;;;7.03;3.08;;;1.50;88.80;;;;;;5093143;28;20028;-75
2022/12/04 07:18:31;;;;;;;6.65;2.75;;;1.50;88.80;;;;;;5093133;28;20044;-75
2022/12/04 07:20:57;;;;;;;5.68;2.78;;;1.50;88.80;;;;;;5093278;28;20059;-75
2022/12/04 07:23:23;;;;;;;6.22;3.10;;;1.40;88.80;;;;;;5074893;28;20063;-75
2022/12/04 07:25:49;;;;;;;6.32;2.90;;;1.40;88.70;;;;;;5093049;28;20444;-75
2022/12/04 07:28:14;;;;;;;5.20;2.80;;;1.50;88.80;;;;;;5093312;28;20044;-75
2022/12/04 07:30:40;;;;;;;6.90;2.78;;;1.50;88.80;;;;;;5072164;28;20119;-75
2022/12/04 07:33:06;;;;;;;5.82;2.70;;;1.50;88.80;;;;;;5092961;28;20130;-74
2022/12/04 07:35:36;;;;;;;5.35;2.45;;;1.50;88.80;;;;;;5092980;28;20036;-75
2022/12/04 07:38:02;;;;;;;6.47;2.78;;;1.50;88.80;;;;;;5092673;28;20071;-75
2022/12/04 07:40:27;;;;;;;7.10;2.50;;;1.50;88.80;;;;;;5092721;28;20044;-75
2022/12/04 07:42:53;;;;;;;5.50;2.58;;;1.60;88.90;;;;;;5093007;28;20036;-75
2022/12/04 07:45:19;;;;;;;5.22;2.40;;;1.50;88.80;;;;;;5093119;28;20127;-75
2022/12/04 07:47:45;;;;;;;7.57;3.17;;;1.50;88.70;;;;;;5093036;28;20102;-74
2022/12/04 07:50:11;;;;;;;6.28;2.83;;;1.60;88.80;;;;;;5093155;28;20421;-74
2022/12/04 07:52:37;;;;;;;5.90;2.58;;;1.50;88.70;;;;;;5093205;28;20042;-74
2022/12/04 07:55:05;;;;;;;6.03;2.67;;;1.60;89.40;;;;;;5093178;28;20498;-75
2022/12/04 07:57:31;;;;;;;5.05;2.47;;;1.60;88.80;;;;;;5093072;28;20047;-75
2022/12/04 07:59:56;;;;;;;6.15;2.65;;;1.60;88.80;;;;;;5093265;28;20119;-75
2022/12/04 08:02:22;;;;;;;5.22;2.28;;;1.60;88.70;;;;;;5074410;28;20197;-75
2022/12/04 08:04:48;;;;;;;7.45;2.95;;;1.70;88.80;;;;;;5074323;28;20048;-75
2022/12/04 08:07:13;;;;;;;5.60;2.30;;;1.60;88.80;;;;;;5074503;28;20054;-74
2022/12/04 08:09:39;;;;;;;4.63;2.38;;;1.60;88.80;;;;;;5092604;28;20470;-75
2022/12/04 08:12:06;;;;;;;4.32;1.95;;;1.60;88.80;;;;;;5074161;28;20036;-75
2022/12/04 08:14:31;;;;;;;6.50;2.72;;;1.70;88.80;;;;;;5074896;28;20047;-75
2022/12/04 08:16:57;;;;;;;6.22;2.65;;;1.70;88.80;;;;;;5074828;28;20421;-74
2022/12/04 08:19:23;;;;;;;6.82;2.70;;;1.70;88.70;;;;;;5092139;28;20036;-75
2022/12/04 08:21:49;;;;;;;6.00;2.63;;;1.70;88.80;;;;;;5092179;28;20101;-75
2022/12/04 08:24:14;;;;;;;5.85;2.63;;;1.70;88.70;;;;;;5073890;28;20096;-75
2022/12/04 08:26:40;;;;;;;5.65;2.55;;;1.60;88.70;;;;;;5074062;28;20493;-75
2022/12/04 08:29:06;;;;;;;5.72;2.60;;;1.70;88.70;;;;;;5092072;28;20044;-75
2022/12/04 08:31:33;;;;;;;5.40;2.42;;;1.70;88.70;;;;;;5073921;28;20036;-75
2022/12/04 08:34:01;;;;;;;5.43;2.70;;;1.70;88.70;;;;;;5074070;28;20494;-75
2022/12/04 08:36:28;;;;;;;5.63;2.53;;;1.70;88.70;;;;;;5074094;28;20036;-75
2022/12/04 08:38:54;;;;;;;6.35;2.10;;;1.70;88.70;;;;;;5091995;28;20127;-75
2022/12/04 08:41:22;;;;;;;7.80;2.50;;;1.70;88.70;;;;;;5093347;28;20173;-75
2022/12/04 08:43:48;;;;;;;6.30;2.60;;;1.70;88.70;;;;;;5095775;28;20567;-75
2022/12/04 08:46:15;;;;;;;7.20;2.85;;;1.70;88.70;;;;;;5095402;28;20040;-75
2022/12/04 08:48:41;;;;;;;5.32;2.50;;;1.70;88.70;;;;;;5095283;28;20044;-75
2022/12/04 08:51:13;;;;;;;4.28;2.10;;;1.70;88.70;;;;;;5095409;28;20067;-75
2022/12/04 08:53:39;;;;;;;5.85;2.70;;;1.80;88.80;;;;;;5095337;28;20051;-75
2022/12/04 08:56:05;;;;;;;5.65;2.22;;;1.90;88.80;;;;;;5095394;28;20044;-75
2022/12/04 08:58:30;;;;;;;6.03;2.47;;;1.70;88.70;;;;;;5077232;28;20068;-75
2022/12/04 09:01:04;;;;;;;5.28;2.15;;;1.70;88.70;;;;;;5077045;28;20051;-75
2022/12/04 09:03:29;;;;;;;5.35;2.47;;;1.80;88.90;;;;;;5077186;28;20040;-75
2022/12/04 09:05:58;;;;;;;5.30;2.30;;;1.80;88.80;;;;;;5095356;28;20040;-75
2022/12/04 09:08:24;;;;;;;5.93;2.65;;;1.80;88.80;;;;;;5095077;28;20578;-75
2022/12/04 09:10:50;;;;;;;4.88;2.28;;;1.70;88.70;;;;;;5095050;28;20119;-75
2022/12/04 09:13:15;;;;;;;4.88;2.08;;;1.70;88.80;;;;;;5094976;28;20115;-75
2022/12/04 09:15:41;;;;;;;5.63;2.50;;;1.90;88.90;;;;;;5095311;28;20043;-75
2022/12/04 09:18:07;;;;;;;6.60;2.42;;;1.70;88.80;;;;;;5076849;28;20469;-75
2022/12/04 09:20:33;;;;;;;5.22;2.40;;;1.80;88.80;;;;;;5094943;28;20406;-75
2022/12/04 09:22:59;;;;;;;5.03;2.33;;;1.80;88.80;;;;;;5094824;28;20051;-75
2022/12/04 09:25:24;;;;;;;4.70;2.15;;;1.80;88.80;;;;;;5095070;28;20044;-75
2022/12/04 09:27:50;;;;;;;4.80;2.28;;;1.80;88.80;;;;;;5095292;28;20043;-75
2022/12/04 09:30:16;;;;;;;4.43;2.03;;;1.80;88.80;;;;;;5095318;28;20454;-75
2022/12/04 09:32:41;;;;;;;5.55;2.42;;;1.80;88.80;;;;;;5095382;28;20036;-75
2022/12/04 09:35:07;;;;;;;6.53;2.60;;;1.80;88.80;;;;;;5094958;28;20047;-75
2022/12/04 09:37:35;;;;;;;5.47;2.38;;;1.90;88.90;;;;;;5094801;28;20134;-75
2022/12/04 09:40:02;;;;;;;5.35;2.40;;;1.80;88.80;;;;;;5095391;28;20040;-75
2022/12/04 09:43:02;;;;;;;5.55;1.92;;;1.80;88.80;;;;;;5095203;28;20040;-75
2022/12/04 09:45:35;;;;;;;4.50;2.10;;;1.80;88.90;;;;;;5081680;28;20066;-74
2022/12/04 09:48:01;;;;;;;5.72;2.50;;;1.80;88.90;;;;;;5094891;28;20043;-75
2022/12/04 09:50:39;;;;;;;4.43;2.40;;;1.80;88.70;;;;;;5076243;28;20478;-75
2022/12/04 09:53:14;;;;;;;6.05;2.63;;;1.80;88.80;;;;;;5093837;28;20593;-75
2022/12/04 09:55:53;;;;;;;5.82;2.50;;;1.80;88.70;;;;;;5093185;28;20131;-75
2022/12/04 09:58:22;;;;;;;5.82;2.40;;;1.80;88.80;;;;;;5094183;28;20394;-75
2022/12/04 10:00:51;;;;;;;5.13;2.50;;;1.80;88.60;;;;;;5094616;28;20044;-75
2022/12/04 10:03:20;;;;;;;5.40;2.40;;;1.80;88.70;;;;;;5094361;28;20401;-74
2022/12/04 10:06:11;;;;;;;5.57;2.40;;;1.90;88.70;;;;;;5076130;28;20047;-75
2022/12/04 10:08:40;;;;;;;3.88;2.00;;;1.80;88.60;;;;;;5077560;28;20032;-75
2022/12/04 10:11:16;;;;;;;4.22;1.98;;;1.90;88.60;;;;;;5094471;28;20097;-75
2022/12/04 10:14:04;;;;;;;5.03;2.17;;;1.90;88.60;;;;;;5092684;28;20114;-75
2022/12/04 10:16:47;;;;;;;4.90;2.50;;;1.90;88.60;;;;;;5092988;28;20101;-75
2022/12/04 10:19:39;;;;;;;5.10;2.40;;;1.90;88.60;;;;;;5092544;28;20039;-75
2022/12/04 10:22:42;;;;;;;4.05;1.88;;;2.00;88.60;;;;;;5093322;28;20067;-75
2022/12/04 10:25:13;;;;;;;4.43;2.25;;;1.90;88.60;;;;;;5078758;28;20048;-75
2022/12/04 10:27:48;;;;;;;4.82;1.92;;;1.90;88.60;;;;;;5094025;28;20505;-75
2022/12/04 10:30:21;;;;;;;3.85;1.75;;;1.90;88.50;;;;;;5093819;28;20106;-75
2022/12/04 10:32:52;;;;;;;3.85;1.90;;;1.90;88.40;;;;;;5092748;28;20028;-75
2022/12/04 10:35:25;;;;;;;4.35;1.88;;;1.90;88.50;;;;;;5093887;28;20044;-75
2022/12/04 10:37:57;;;;;;;3.72;1.80;;;2.00;88.60;;;;;;5094355;28;20074;-75
2022/12/04 10:40:33;;;;;;;4.88;2.10;;;1.90;88.40;;;;;;5076424;28;20379;-75
2022/12/04 10:43:25;;;;;;;3.53;1.75;;;2.00;88.50;;;;;;5074009;28;20044;-75
2022/12/04 10:45:51;;;;;;;4.53;1.80;;;1.90;88.40;;;;;;5093003;28;20186;-75
2022/12/04 10:48:23;;;;;;;3.35;1.70;;;2.00;88.40;;;;;;5093744;28;20070;-75
2022/12/04 10:50:48;;;;;;;;;;;2.00;88.30;;;;;;5075548;28;20044;-75
2022/12/04 10:53:15;;;;;;;4.07;1.80;;;2.00;88.40;;;;;;5075222;28;19919;-75
2022/12/04 10:55:41;;;;;;;3.65;1.60;;;2.20;88.40;;;;;;5093877;28;20032;-75
2022/12/04 10:58:16;;;;;;;3.97;1.70;;;2.10;88.30;;;;;;5093456;28;20035;-75
2022/12/04 11:00:44;;;;;;;2.55;1.38;;;2.10;88.30;;;;;;5093784;28;20119;-76
2022/12/04 11:03:23;;;;;;;3.58;1.90;;;2.10;88.30;;;;;;5075133;28;20135;-75
2022/12/04 11:05:55;;;;;;;3.15;1.73;;;2.20;88.30;;;;;;5074272;28;20072;-75
2022/12/04 11:08:25;;;;;;;3.22;1.77;;;2.10;88.20;;;;;;5093713;28;20044;-76
2022/12/04 11:11:08;;;;;;;3.53;1.70;;;2.10;88.20;;;;;;5093260;28;20120;-75
2022/12/04 11:13:33;;;;;;;3.35;1.52;;;2.10;88.20;;;;;;5092149;28;20044;-74
2022/12/04 11:15:59;;;;;;;2.38;1.38;;;2.20;88.30;;;;;;5092984;28;20094;-75
2022/12/04 11:18:28;;;;;;;3.22;1.48;;;2.20;88.20;;;;;;5075028;28;20513;-75
2022/12/04 11:21:13;;;;;;;2.72;1.50;;;2.30;88.20;;;;;;5074753;28;20375;-75
2022/12/04 11:23:48;;;;;;;4.18;1.88;;;2.20;88.10;;;;;;5092951;28;20069;-75
2022/12/04 11:26:15;;;;;;;4.05;1.92;;;2.30;88.20;;;;;;5075376;28;20040;-75
2022/12/04 11:28:52;;;;;;;3.55;1.65;;;2.20;88.10;;;;;;5074744;28;20150;-75
2022/12/04 11:31:20;;;;;;;3.65;1.70;;;2.20;88.10;;;;;;5074751;28;20036;-75
2022/12/04 11:33:51;;;;;;;2.38;1.48;;;2.30;88.10;;;;;;5092741;28;20036;-75
2022/12/04 11:36:22;;;;;;;3.95;2.00;;;2.30;88.20;;;;;;5058571;28;20044;-75
2022/12/04 11:38:50;;;;;;;3.28;1.67;;;2.30;88.10;;;;;;5092757;28;20048;-75
2022/12/04 11:41:27;;;;;;;2.50;1.50;;;2.30;88.10;;;;;;5074664;28;20043;-75
2022/12/04 11:43:53;;;;;;;2.63;1.27;;;2.40;88.20;;;;;;5074543;28;20398;-75
2022/12/04 11:46:22;;;;;;;3.50;1.73;;;2.30;88.10;;;;;;5092715;28;20055;-76
2022/12/04 11:48:48;;;;;;;2.92;1.70;;;2.40;88.70;;;;;;5074317;28;20036;-75
2022/12/04 11:51:42;;;;;;;3.38;1.83;;;2.40;88.10;;;;;;5074471;28;20093;-76
2022/12/04 11:54:27;;;;;;;4.32;1.80;;;2.40;88.10;;;;;;5078883;28;20497;-75
2022/12/04 11:57:14;;;;;;;4.38;1.98;;;2.40;88.10;;;;;;5092448;28;20040;-75
2022/12/04 11:59:59;;;;;;;2.97;1.50;;;2.40;88.10;;;;;;5092440;28;20078;-76
2022/12/04 12:02:59;;;;;;;3.58;1.60;;;2.30;88.00;;;;;;5091252;28;20044;-75
2022/12/04 12:05:52;;;;;;;2.95;1.50;;;2.30;88.00;;;;;;5092349;28;20101;-75
2022/12/04 12:08:50;;;;;;;2.65;1.40;;;2.40;88.10;;;;;;5092312;28;20040;-75
2022/12/04 12:11:34;;;;;;;2.78;1.50;;;2.40;88.10;;;;;;5092179;28;20052;-75
2022/12/04 12:14:13;;;;;;;3.63;1.60;;;2.40;88.10;;;;;;5092311;28;20431;-76
2022/12/04 12:17:13;;;;;;;3.42;1.55;;;2.40;88.00;;;;;;5091522;28;20046;-75
2022/12/04 12:20:02;;;;;;;3.65;1.80;;;2.40;88.00;;;;;;5077109;28;20044;-75
2022/12/04 12:22:47;;;;;;;3.00;1.35;;;2.40;88.00;;;;;;5091423;28;20051;-76
2022/12/04 12:25:31;;;;;;;3.35;1.88;;;2.50;88.10;;;;;;5091534;28;20044;-75
2022/12/04 12:28:22;;;;;;;2.55;1.55;;;2.40;88.00;;;;;;5090863;28;20044;-75
2022/12/04 12:31:14;;;;;;;3.92;2.00;;;2.40;88.10;;;;;;5076746;28;20044;-76
2022/12/04 12:33:53;;;;;;;3.35;1.48;;;2.50;88.00;;;;;;5092532;28;20064;-75
2022/12/04 12:36:21;;;;;;;2.95;1.50;;;2.50;88.00;;;;;;5074857;28;20086;-75
2022/12/04 12:38:54;;;;;;;3.05;1.48;;;2.50;88.00;;;;;;5092425;28;20036;-75
2022/12/04 12:41:27;;;;;;;3.08;1.55;;;2.50;88.00;;;;;;5091818;28;20044;-75
2022/12/04 12:43:59;;;;;;;2.42;1.33;;;2.50;88.00;;;;;;5092457;28;20036;-76
2022/12/04 12:46:33;;;;;;;3.20;1.52;;;2.60;88.00;;;;;;5074723;28;20394;-75
2022/12/04 12:49:08;;;;;;;3.78;1.52;;;2.50;87.90;;;;;;5090453;28;20495;-75
2022/12/04 12:51:55;;;;;;;2.28;1.42;;;2.50;87.90;;;;;;5073538;28;20409;-75
2022/12/04 12:54:47;;;;;;;1.95;1.20;;;2.60;87.90;;;;;;5091876;28;20028;-76
2022/12/04 12:57:20;;;;;;;2.75;1.35;;;2.60;87.90;;;;;;5061245;28;20126;-75
2022/12/04 12:59:51;;;;;;;3.25;1.50;;;2.60;87.90;;;;;;5090626;28;20040;-76
2022/12/04 13:02:34;;;;;;;2.70;1.45;;;2.50;87.90;;;;;;5092353;28;20496;-75
2022/12/04 13:05:05;;;;;;;3.10;1.60;;;2.60;88.00;;;;;;5055769;28;20052;-75
2022/12/04 13:08:04;;;;;;;2.55;1.33;;;2.60;87.90;;;;;;5073761;28;20071;-76
2022/12/04 13:10:36;;;;;;;3.72;1.42;;;2.60;88.00;;;;;;5090010;28;20044;-76
2022/12/04 13:13:09;;;;;;;3.25;1.60;;;2.60;88.00;;;;;;5072825;28;20123;-75
2022/12/04 13:15:49;;;;;;;3.17;1.58;;;2.60;87.90;;;;;;5056571;28;20040;-75
2022/12/04 13:18:27;;;;;;;2.25;1.20;;;2.60;87.90;;;;;;5091752;28;20033;-75
2022/12/04 13:20:58;;;;;;;2.55;1.42;;;2.60;87.90;;;;;;5091600;28;20048;-75
2022/12/04 13:23:52;;;;;;;3.15;1.58;;;2.60;87.90;;;;;;5091371;28;20047;-75
2022/12/04 13:26:57;;;;;;;4.28;1.83;;;2.60;88.00;;;;;;5089445;28;20047;-75
2022/12/04 13:29:58;;;;;;;2.10;1.30;;;2.60;87.90;;;;;;5093518;28;20125;-75
2022/12/04 13:32:48;;;;;;;3.53;1.30;;;2.60;88.00;;;;;;5094374;28;20048;-75